createdAt,value
2018-04-12T00:00:09.447Z,21.47
2018-04-12T00:02:38.951Z,20.40
2018-04-12T00:05:08.558Z,24.37
2018-04-12T00:07:38.633Z,24.47
2018-04-12T00:10:08.578Z,24.17
2018-04-12T00:12:38.304Z,25.23
2018-04-12T00:15:07.753Z,25.97
2018-04-12T00:17:37.755Z,21.77
2018-04-12T00:20:07.592Z,18.87
2018-04-12T00:22:37.491Z,24.90
2018-04-12T00:25:07.085Z,25.07
2018-04-12T00:27:36.734Z,20.67
2018-04-12T00:30:06.672Z,22.03
2018-04-12T00:32:36.736Z,21.57
2018-04-12T00:35:06.586Z,26.17
2018-04-12T00:37:36.590Z,30.73
2018-04-12T00:40:07.360Z,22.63
2018-04-12T00:42:37.328Z,24.80
2018-04-12T00:45:07.304Z,30.10
2018-04-12T00:47:37.172Z,32.53
2018-04-12T00:50:07.021Z,33.93
2018-04-12T00:52:36.850Z,34.80
2018-04-12T00:55:06.802Z,40.80
2018-04-12T00:57:36.604Z,40.43
2018-04-12T01:00:06.504Z,41.23
2018-04-12T01:02:36.315Z,37.33
2018-04-12T01:05:06.299Z,42.30
2018-04-12T01:07:40.082Z,36.40
2018-04-12T01:10:10.365Z,32.70
2018-04-12T01:12:44.687Z,34.80
2018-04-12T01:15:14.665Z,36.47
2018-04-12T01:17:44.373Z,41.67
2018-04-12T01:20:14.572Z,32.90
2018-04-12T01:22:46.904Z,41.90
2018-04-12T01:25:16.750Z,43.10
2018-04-12T01:27:47.693Z,36.23
2018-04-12T01:30:17.820Z,37.00
2018-04-12T01:33:13.245Z,33.00
2018-04-12T01:35:43.338Z,33.77
2018-04-12T01:38:57.562Z,40.90
2018-04-12T01:41:27.395Z,34.80
2018-04-12T01:43:57.499Z,32.93
2018-04-12T01:46:27.299Z,31.23
2018-04-12T01:48:57.427Z,32.90
2018-04-12T01:51:27.479Z,32.87
2018-04-12T01:53:57.201Z,29.80
2018-04-12T01:56:26.992Z,26.67
2018-04-12T01:58:57.360Z,24.57
2018-04-12T02:01:27.252Z,26.03
2018-04-12T02:03:58.014Z,26.50
2018-04-12T02:06:28.704Z,25.47
2018-04-12T02:08:59.724Z,25.77
2018-04-12T02:11:29.750Z,25.73
2018-04-12T02:13:59.904Z,26.70
2018-04-12T02:16:30.245Z,24.23
2018-04-12T02:19:01.158Z,25.53
2018-04-12T02:21:31.125Z,28.47
2018-04-12T02:24:01.160Z,27.93
2018-04-12T02:26:31.119Z,26.63
2018-04-12T02:29:01.897Z,25.97
2018-04-12T02:31:31.796Z,26.97
2018-04-12T02:37:23.449Z,28.73
2018-04-12T02:39:53.250Z,28.50
2018-04-12T02:42:23.174Z,28.77
2018-04-12T02:44:53.216Z,30.23
2018-04-12T02:47:22.603Z,30.60
2018-04-12T02:49:52.482Z,26.37
2018-04-12T02:52:21.860Z,28.23
2018-04-12T02:54:52.189Z,27.47
2018-04-12T02:57:21.994Z,25.50
2018-04-12T02:59:52.031Z,22.23
2018-04-12T03:02:21.820Z,20.97
2018-04-12T03:04:51.867Z,19.87
2018-04-12T03:07:21.342Z,20.20
2018-04-12T03:09:51.152Z,20.23
2018-04-12T03:12:20.995Z,20.43
2018-04-12T03:18:13.112Z,59.53
2018-04-12T03:24:03.859Z,22.03
2018-04-12T03:26:33.828Z,20.17
2018-04-12T03:35:10.153Z,19.50
2018-04-12T03:37:39.621Z,20.13
2018-04-12T03:40:09.408Z,19.93
2018-04-12T03:42:39.223Z,18.50
2018-04-12T03:45:08.939Z,19.93
2018-04-12T03:47:39.003Z,18.77
2018-04-12T03:50:08.968Z,19.77
2018-04-12T03:52:39.946Z,20.20
2018-04-12T03:55:10.648Z,20.43
2018-04-12T03:57:40.595Z,20.50
2018-04-12T04:00:10.241Z,19.17
2018-04-12T04:02:40.379Z,19.53
2018-04-12T04:05:10.185Z,20.10
2018-04-12T04:07:40.256Z,19.33
2018-04-12T04:10:10.992Z,21.20
2018-04-12T04:12:41.167Z,20.07
2018-04-12T04:18:43.112Z,20.40
2018-04-12T04:21:15.021Z,20.70
2018-04-12T04:23:44.960Z,20.53
2018-04-12T04:26:15.100Z,21.03
2018-04-12T04:28:45.032Z,20.10
2018-04-12T04:31:14.896Z,21.27
2018-04-12T04:33:44.864Z,24.73
2018-04-12T04:36:14.842Z,24.63
2018-04-12T04:38:44.648Z,25.30
2018-04-12T04:44:37.161Z,22.87
2018-04-12T04:47:06.621Z,21.73
2018-04-12T04:49:36.368Z,22.30
2018-04-12T04:52:06.324Z,22.30
2018-04-12T04:54:36.195Z,23.93
2018-04-12T04:57:06.464Z,24.83
2018-04-12T04:59:36.527Z,24.73
2018-04-12T05:02:06.608Z,22.20
2018-04-12T05:04:36.367Z,22.90
2018-04-12T05:07:06.353Z,23.57
2018-04-12T05:09:37.517Z,20.90
2018-04-12T05:12:07.005Z,20.57
2018-04-12T05:14:36.970Z,21.43
2018-04-12T05:17:06.815Z,21.30
2018-04-12T05:19:36.664Z,21.40
2018-04-12T05:25:28.516Z,21.20
2018-04-12T05:27:58.175Z,21.47
2018-04-12T05:30:28.505Z,20.00
2018-04-12T05:32:58.419Z,21.37
2018-04-12T05:35:28.155Z,20.20
2018-04-12T05:37:58.358Z,21.30
2018-04-12T05:43:48.720Z,20.13
2018-04-12T05:46:18.372Z,20.97
2018-04-12T05:48:48.455Z,22.93
2018-04-12T05:51:18.506Z,22.50
2018-04-12T05:53:48.640Z,23.13
2018-04-12T05:56:18.003Z,23.30
2018-04-12T05:58:48.000Z,29.93
2018-04-12T06:01:17.847Z,35.27
2018-04-12T06:03:47.093Z,29.77
2018-04-12T06:06:16.966Z,30.53
2018-04-12T06:08:46.750Z,30.80
2018-04-12T06:11:16.432Z,27.40
2018-04-12T06:13:46.049Z,32.83
2018-04-12T06:16:15.989Z,33.67
2018-04-12T06:18:45.518Z,36.87
2018-04-12T06:21:15.234Z,34.70
2018-04-12T06:23:44.672Z,29.87
2018-04-12T06:26:15.252Z,28.73
2018-04-12T06:28:45.000Z,27.57
2018-04-12T06:31:14.197Z,28.33
2018-04-12T06:33:44.718Z,25.90
2018-04-12T06:36:14.765Z,26.30
2018-04-12T06:38:44.519Z,26.63
2018-04-12T06:41:14.397Z,25.40
2018-04-12T06:43:44.245Z,25.77
2018-04-12T06:46:13.805Z,26.80
2018-04-12T06:48:43.634Z,25.87
2018-04-12T06:51:13.229Z,26.27
2018-04-12T06:53:44.029Z,26.00
2018-04-12T06:56:13.364Z,26.17
2018-04-12T06:58:43.261Z,24.80
2018-04-12T07:01:13.074Z,25.40
2018-04-12T07:03:42.849Z,24.87
2018-04-12T07:06:12.313Z,24.93
2018-04-12T07:08:42.181Z,25.07
2018-04-12T07:11:12.206Z,24.60
2018-04-12T07:13:43.043Z,26.57
2018-04-12T07:16:12.734Z,27.77
2018-04-12T07:18:42.436Z,24.10
2018-04-12T07:21:12.101Z,24.73
2018-04-12T07:23:41.936Z,25.30
2018-04-12T07:26:11.382Z,25.13
2018-04-12T07:28:40.939Z,24.83
2018-04-12T07:31:10.655Z,23.23
2018-04-12T07:33:40.169Z,25.13
2018-04-12T07:36:10.058Z,22.47
2018-04-12T07:38:39.988Z,21.87
2018-04-12T07:41:09.580Z,22.63
2018-04-12T07:43:39.332Z,20.37
2018-04-12T07:46:08.977Z,20.93
2018-04-12T07:52:11.032Z,20.60
2018-04-12T07:54:40.917Z,22.80
2018-04-12T07:57:11.292Z,23.10
2018-04-12T07:59:41.692Z,21.87
2018-04-12T08:02:11.594Z,21.63
2018-04-12T08:04:41.607Z,23.40
2018-04-12T08:07:11.679Z,22.77
2018-04-12T08:09:41.828Z,23.93
2018-04-12T08:12:12.084Z,23.57
2018-04-12T08:14:42.434Z,22.87
2018-04-12T08:17:12.572Z,22.97
2018-04-12T08:19:42.775Z,22.70
2018-04-12T08:22:12.983Z,23.17
2018-04-12T08:24:43.039Z,22.33
2018-04-12T08:27:13.160Z,23.80
2018-04-12T08:29:43.079Z,24.40
2018-04-12T08:32:13.084Z,24.23
2018-04-12T08:34:43.305Z,24.50
2018-04-12T08:37:13.470Z,26.90
2018-04-12T08:39:43.422Z,25.47
2018-04-12T08:42:13.373Z,26.93
2018-04-12T08:48:05.022Z,30.37
2018-04-12T08:50:35.053Z,27.50
2018-04-12T08:53:05.851Z,25.87
2018-04-12T08:55:35.700Z,22.80
2018-04-12T08:58:05.698Z,23.50
2018-04-12T09:00:35.632Z,24.33
2018-04-12T09:03:05.470Z,24.80
2018-04-12T09:05:35.408Z,24.40
2018-04-12T09:08:05.586Z,22.80
2018-04-12T09:10:35.453Z,24.70
2018-04-12T09:13:43.154Z,22.97
2018-04-12T09:16:13.856Z,23.17
2018-04-12T09:18:43.904Z,23.83
2018-04-12T09:21:13.795Z,24.53
2018-04-12T09:23:43.661Z,24.57
2018-04-12T09:26:13.567Z,23.87
2018-04-12T09:28:43.242Z,23.23
2018-04-12T09:31:13.142Z,24.17
2018-04-12T09:33:42.504Z,23.23
2018-04-12T09:36:12.588Z,26.00
2018-04-12T09:38:42.641Z,27.17
2018-04-12T09:41:12.411Z,30.77
2018-04-12T09:43:42.449Z,27.90
2018-04-12T09:46:13.252Z,25.63
2018-04-12T09:48:43.342Z,26.40
2018-04-12T09:51:13.113Z,25.77
2018-04-12T09:53:42.865Z,25.57
2018-04-12T09:56:12.635Z,26.00
2018-04-12T09:58:42.452Z,26.60
2018-04-12T10:01:13.568Z,25.97
2018-04-12T10:03:45.396Z,24.77
2018-04-12T10:06:20.302Z,24.47
2018-04-12T10:08:55.569Z,25.10
2018-04-12T10:11:25.270Z,22.60
2018-04-12T10:13:55.651Z,25.60
2018-04-12T10:16:25.569Z,21.73
2018-04-12T10:18:55.476Z,24.33
2018-04-12T10:21:25.244Z,27.80
2018-04-12T10:23:54.992Z,29.60
2018-04-12T10:26:24.864Z,27.33
2018-04-12T10:28:54.906Z,30.70
2018-04-12T10:31:25.151Z,36.00
2018-04-12T10:33:54.903Z,47.50
2018-04-12T10:36:24.973Z,61.03
2018-04-12T10:38:54.640Z,70.67
2018-04-12T10:41:24.370Z,73.23
2018-04-12T10:43:54.529Z,69.47
2018-04-12T10:46:24.289Z,54.43
2018-04-12T10:48:54.037Z,39.50
2018-04-12T10:51:24.588Z,34.70
2018-04-12T10:53:54.479Z,29.73
2018-04-12T10:56:24.395Z,32.37
2018-04-12T10:58:54.463Z,32.97
2018-04-12T11:01:24.482Z,30.83
2018-04-12T11:03:54.646Z,29.67
2018-04-12T11:06:24.624Z,31.27
2018-04-12T11:08:54.503Z,30.73
2018-04-12T11:11:24.450Z,30.97
2018-04-12T11:13:54.188Z,31.83
2018-04-12T11:16:23.768Z,28.00
2018-04-12T11:18:53.477Z,25.83
2018-04-12T11:21:23.571Z,27.20
2018-04-12T11:23:53.418Z,34.70
2018-04-12T11:26:23.364Z,41.40
2018-04-12T11:28:53.217Z,58.80
2018-04-12T11:31:24.010Z,47.13
2018-04-12T11:33:53.890Z,54.23
2018-04-12T11:39:43.831Z,48.17
2018-04-12T11:42:13.781Z,52.40
2018-04-12T11:44:43.501Z,53.07
2018-04-12T11:47:12.928Z,54.67
2018-04-12T11:49:42.629Z,64.57
2018-04-12T11:52:12.415Z,54.53
2018-04-12T11:54:42.023Z,30.00
2018-04-12T11:57:11.374Z,26.50
2018-04-12T11:59:41.001Z,25.20
2018-04-12T12:02:10.493Z,24.40
2018-04-12T12:04:40.104Z,23.53
2018-04-12T12:07:09.953Z,23.57
2018-04-12T12:09:39.649Z,24.33
2018-04-12T12:12:11.221Z,28.30
2018-04-12T12:14:42.226Z,40.20
2018-04-12T12:17:13.748Z,41.37
2018-04-12T12:19:48.743Z,42.03
2018-04-12T12:22:18.229Z,45.40
2018-04-12T12:24:47.578Z,45.43
2018-04-12T12:27:21.868Z,47.03
2018-04-12T12:29:51.241Z,42.53
2018-04-12T12:32:23.952Z,41.77
2018-04-12T12:34:53.494Z,33.30
2018-04-12T12:37:22.856Z,33.07
2018-04-12T12:39:53.649Z,31.00
2018-04-12T12:42:23.529Z,32.73
2018-04-12T12:44:55.249Z,29.27
2018-04-12T12:47:27.880Z,31.70
2018-04-12T12:50:00.142Z,28.07
2018-04-12T12:52:29.738Z,27.47
2018-04-12T12:54:59.452Z,27.63
2018-04-12T12:57:31.062Z,26.83
2018-04-12T13:03:33.182Z,25.43
2018-04-12T13:06:03.019Z,27.07
2018-04-12T13:08:32.854Z,25.57
2018-04-12T13:11:02.519Z,26.30
2018-04-12T13:13:32.288Z,27.30
2018-04-12T13:16:01.600Z,27.40
2018-04-12T13:18:31.371Z,27.77
2018-04-12T13:21:01.201Z,27.20
2018-04-12T13:23:31.760Z,25.43
2018-04-12T13:26:01.662Z,27.10
2018-04-12T13:28:31.459Z,27.27
2018-04-12T13:31:01.069Z,27.73
2018-04-12T13:33:30.982Z,22.37
2018-04-12T13:36:00.891Z,25.00
2018-04-12T13:38:30.517Z,24.97
2018-04-12T13:41:02.537Z,25.03
2018-04-12T13:43:35.537Z,24.00
2018-04-12T13:46:05.514Z,23.67
2018-04-12T13:48:35.369Z,24.00
2018-04-12T13:51:06.781Z,24.43
2018-04-12T13:53:36.727Z,27.07
2018-04-12T13:56:06.497Z,24.87
2018-04-12T13:58:36.175Z,25.07
2018-04-12T14:01:05.975Z,23.53
2018-04-12T14:03:35.845Z,25.80
2018-04-12T14:06:05.630Z,23.60
2018-04-12T14:08:35.537Z,22.83
2018-04-12T14:11:05.395Z,22.37
2018-04-12T14:13:35.275Z,28.93
2018-04-12T14:16:09.709Z,23.70
2018-04-12T14:18:39.917Z,25.07
2018-04-12T14:21:09.243Z,24.90
2018-04-12T14:23:39.057Z,24.20
2018-04-12T14:26:09.965Z,24.73
2018-04-12T14:28:40.420Z,26.93
2018-04-12T14:31:10.277Z,24.53
2018-04-12T14:33:40.101Z,26.83
2018-04-12T14:36:09.530Z,28.67
2018-04-12T14:38:39.781Z,27.83
2018-04-12T14:41:10.448Z,24.10
2018-04-12T14:43:41.849Z,25.03
2018-04-12T14:46:11.937Z,22.57
2018-04-12T14:48:41.668Z,21.77
2018-04-12T14:51:11.021Z,27.67
2018-04-12T14:53:44.163Z,34.20
2018-04-12T14:56:13.814Z,27.30
2018-04-12T14:58:44.111Z,24.90
2018-04-12T15:01:13.582Z,29.57
2018-04-12T15:03:45.596Z,24.70
2018-04-12T15:06:15.217Z,29.83
2018-04-12T15:08:44.609Z,28.97
2018-04-12T15:11:14.777Z,29.77
2018-04-12T15:13:47.369Z,26.07
2018-04-12T15:16:16.914Z,27.53
2018-04-12T15:18:46.308Z,26.53
2018-04-12T15:21:16.405Z,29.10
2018-04-12T15:23:47.711Z,26.27
2018-04-12T15:26:17.596Z,29.73
2018-04-12T15:28:47.506Z,31.20
2018-04-12T15:31:17.448Z,28.57
2018-04-12T15:33:48.257Z,27.27
2018-04-12T15:36:18.208Z,31.97
2018-04-12T15:38:48.582Z,29.33
2018-04-12T15:41:17.991Z,26.77
2018-04-12T15:43:51.177Z,35.13
2018-04-12T15:46:20.630Z,31.63
2018-04-12T15:48:50.540Z,25.93
2018-04-12T15:51:20.449Z,31.07
2018-04-12T15:53:50.334Z,27.53
2018-04-12T15:56:20.302Z,27.40
2018-04-12T15:58:50.193Z,34.93
2018-04-12T16:01:20.107Z,28.07
2018-04-12T16:03:49.900Z,28.13
2018-04-12T16:06:19.785Z,31.23
2018-04-12T16:08:49.624Z,28.30
2018-04-12T16:11:19.331Z,30.07
2018-04-12T16:13:48.956Z,30.53
2018-04-12T16:16:18.413Z,33.17
2018-04-12T16:18:48.340Z,29.87
2018-04-12T16:21:21.629Z,27.63
2018-04-12T16:23:51.651Z,27.90
2018-04-12T16:26:21.615Z,27.50
2018-04-12T16:28:51.729Z,26.70
2018-04-12T16:31:22.042Z,27.57
2018-04-12T16:33:51.552Z,26.87
2018-04-12T16:36:24.854Z,26.50
2018-04-12T16:38:54.163Z,28.73
2018-04-12T16:41:23.654Z,33.10
2018-04-12T16:43:53.123Z,30.43
2018-04-12T16:46:23.261Z,32.27
2018-04-12T16:48:53.850Z,31.67
2018-04-12T16:51:24.335Z,29.30
2018-04-12T16:53:54.265Z,30.00
2018-04-12T16:56:23.835Z,28.60
2018-04-12T16:58:53.521Z,29.77
2018-04-12T17:01:24.234Z,29.40
2018-04-12T17:03:53.991Z,29.97
2018-04-12T17:06:23.370Z,31.50
2018-04-12T17:08:52.683Z,32.07
2018-04-12T17:11:22.021Z,29.40
2018-04-12T17:13:51.763Z,31.93
2018-04-12T17:16:24.376Z,33.60
2018-04-12T17:18:54.269Z,34.07
2018-04-12T17:21:25.371Z,32.00
2018-04-12T17:23:55.250Z,34.20
2018-04-12T17:26:24.610Z,34.57
2018-04-12T17:28:54.820Z,33.90
2018-04-12T17:31:24.169Z,33.20
2018-04-12T17:33:59.429Z,36.87
2018-04-12T17:36:29.839Z,39.23
2018-04-12T17:39:00.809Z,33.20
2018-04-12T17:41:31.088Z,36.80
2018-04-12T17:44:05.004Z,37.80
2018-04-12T17:46:38.124Z,36.73
2018-04-12T17:49:07.584Z,35.83
2018-04-12T17:51:36.942Z,35.20
2018-04-12T17:54:08.775Z,36.33
2018-04-12T17:56:38.396Z,37.07
2018-04-12T17:59:07.777Z,35.57
2018-04-12T18:01:37.256Z,34.37
2018-04-12T18:04:11.354Z,36.67
2018-04-12T18:06:42.212Z,36.90
2018-04-12T18:09:12.467Z,36.53
2018-04-12T18:11:41.859Z,34.97
2018-04-12T18:14:13.913Z,33.83
2018-04-12T18:16:46.970Z,32.43
2018-04-12T18:19:17.714Z,32.17
2018-04-12T18:21:49.437Z,34.83
2018-04-12T18:24:18.781Z,35.13
2018-04-12T18:26:52.063Z,32.63
2018-04-12T18:29:21.408Z,32.60
2018-04-12T18:31:50.805Z,30.80
2018-04-12T18:34:20.227Z,34.17
2018-04-12T18:36:49.690Z,33.83
2018-04-12T18:39:19.146Z,32.67
2018-04-12T18:41:50.516Z,29.57
2018-04-12T18:44:20.140Z,33.17
2018-04-12T18:46:50.259Z,30.90
2018-04-12T18:49:20.422Z,29.97
2018-04-12T18:51:49.970Z,31.13
2018-04-12T18:54:19.410Z,30.77
2018-04-12T18:56:49.492Z,28.87
2018-04-12T18:59:18.950Z,31.77
2018-04-12T19:01:48.317Z,30.77
2018-04-12T19:04:17.754Z,29.87
2018-04-12T19:06:47.226Z,29.47
2018-04-12T19:09:16.715Z,31.53
2018-04-12T19:11:46.421Z,30.97
2018-04-12T19:14:16.567Z,32.00
2018-04-12T19:16:46.626Z,31.73
2018-04-12T19:19:19.753Z,30.33
2018-04-12T19:21:49.306Z,29.83
2018-04-12T19:24:19.024Z,29.40
2018-04-12T19:26:48.574Z,29.30
2018-04-12T19:29:18.047Z,27.60
2018-04-12T19:31:47.407Z,28.70
2018-04-12T19:34:17.968Z,25.47
2018-04-12T19:36:52.597Z,27.23
2018-04-12T19:39:22.645Z,29.37
2018-04-12T19:41:55.693Z,29.63
2018-04-12T19:44:25.281Z,28.13
2018-04-12T19:46:54.797Z,27.10
2018-04-12T19:49:25.574Z,25.87
2018-04-12T19:51:56.117Z,27.73
2018-04-12T19:54:25.564Z,28.80
2018-04-12T19:56:56.484Z,25.07
2018-04-12T19:59:27.471Z,25.33
2018-04-12T20:02:00.130Z,24.40
2018-04-12T20:04:29.705Z,23.87
2018-04-12T20:06:59.371Z,22.73
2018-04-12T20:09:31.363Z,22.90
2018-04-12T20:12:00.777Z,23.57
2018-04-12T20:14:30.802Z,24.20
2018-04-12T20:17:00.597Z,23.80
2018-04-12T20:19:29.968Z,24.23
2018-04-12T20:22:00.140Z,23.80
2018-04-12T20:24:29.517Z,23.13
2018-04-12T20:26:58.988Z,24.80
2018-04-12T20:29:28.499Z,24.63
2018-04-12T20:31:58.713Z,25.50
2018-04-12T20:34:28.158Z,24.67
2018-04-12T20:36:58.448Z,24.93
2018-04-12T20:39:28.714Z,24.02
2018-04-12T20:41:59.699Z,24.33
2018-04-12T20:44:29.303Z,23.70
2018-04-12T20:46:58.741Z,24.20
2018-04-12T20:52:49.982Z,21.77
2018-04-12T20:55:19.325Z,23.00
2018-04-12T20:57:48.878Z,23.80
2018-04-12T21:00:18.311Z,23.70
2018-04-12T21:02:48.724Z,23.60
2018-04-12T21:05:26.824Z,22.50
2018-04-12T21:08:01.741Z,22.70
2018-04-12T21:13:53.229Z,23.10
2018-04-12T21:16:22.637Z,25.63
2018-04-12T21:18:52.244Z,21.40
2018-04-12T21:21:23.400Z,21.30
2018-04-12T21:23:53.379Z,23.53
2018-04-12T21:26:23.000Z,21.57
2018-04-12T21:28:52.425Z,21.70
2018-04-12T21:31:21.753Z,19.90
2018-04-12T21:33:51.066Z,18.60
2018-04-12T21:36:20.420Z,18.07
2018-04-12T21:38:49.959Z,20.73
2018-04-12T21:41:19.359Z,18.83
2018-04-12T21:43:48.845Z,20.03
2018-04-12T21:46:18.225Z,19.77
2018-04-12T21:48:48.280Z,17.87
2018-04-12T21:51:17.586Z,18.70
2018-04-12T21:53:46.961Z,18.97
2018-04-12T21:56:17.144Z,17.20
2018-04-12T21:58:46.702Z,18.43
2018-04-12T22:01:16.099Z,17.47
2018-04-12T22:03:45.411Z,16.43
2018-04-12T22:06:14.830Z,16.20
2018-04-12T22:08:44.303Z,15.93
2018-04-12T22:11:13.686Z,15.00
2018-04-12T22:13:43.006Z,16.57
2018-04-12T22:16:12.703Z,16.10
2018-04-12T22:18:42.361Z,15.27
2018-04-12T22:21:11.671Z,15.80
2018-04-12T22:23:41.832Z,16.20
2018-04-12T22:26:11.446Z,14.90
2018-04-12T22:28:40.759Z,15.33
2018-04-12T22:31:10.158Z,14.70
2018-04-12T22:33:39.485Z,13.50
2018-04-12T22:36:08.783Z,15.90
2018-04-12T22:42:10.266Z,15.03
2018-04-12T22:44:40.014Z,12.63
2018-04-12T22:47:10.429Z,11.73
2018-04-12T22:49:40.033Z,11.23
2018-04-12T22:52:09.601Z,11.33
2018-04-12T22:54:39.239Z,10.93
2018-04-12T22:57:08.663Z,11.13
2018-04-12T22:59:38.075Z,11.83
2018-04-12T23:02:08.151Z,11.97
2018-04-12T23:07:58.732Z,11.87
2018-04-12T23:10:28.111Z,12.27
2018-04-12T23:12:57.620Z,12.70
2018-04-12T23:15:27.236Z,13.53
2018-04-12T23:17:58.502Z,11.67
2018-04-12T23:20:29.784Z,12.80
2018-04-12T23:22:59.219Z,12.30
2018-04-12T23:25:29.264Z,13.37
2018-04-12T23:27:59.032Z,14.00
2018-04-12T23:30:28.392Z,14.13
2018-04-12T23:32:57.976Z,13.57
2018-04-12T23:35:27.458Z,12.53
2018-04-12T23:37:56.873Z,12.80
2018-04-12T23:40:27.084Z,14.00
2018-04-12T23:42:56.516Z,11.83
2018-04-12T23:45:26.620Z,13.80
2018-04-12T23:51:17.231Z,13.10
2018-04-12T23:53:48.556Z,13.30
2018-04-12T23:56:19.648Z,13.53
2018-04-12T23:58:51.080Z,14.80
